KCCA/CCA METAR and TAF weather

Enter ICAO airport designator
Station Type Date Time Source
KCCA METAR 2020/02/21 13:55 UTC NOAA

KCCA 211355Z AUTO 00000KT 10SM CLR M04/M11 A3073 RMK AO2


Station Type Date Time Source
KCCA Decoded METAR 2020/02/21 13:55 UTC NOAA

Station name not available
Feb 21, 2020 - 08:55 AM EST / 2020.02.21 1355 UTC
Wind: Calm:0
Visibility: 10 mile(s):0
Sky conditions: clear
Temperature: 24 F (-4 C)
Dew Point: 12 F (-11 C)
Relative Humidity: 58%
Pressure (altimeter): 30.73 in. Hg (1040 hPa)
ob: KCCA 211355Z AUTO 00000KT 10SM CLR M04/M11 A3073 RMK AO2
cycle: 14

Station Type Date Time Source
KCCA TAF UTC NOAA

Error!

Example: see airport list